»·PEaware :: UPS821 KGEG-KBFI

UPS821 :: KGEG-KBFI

FLIGHT INFORMATION

Flight Status: Arrived
Operator:
United Parcel Service
More flights by this operator :: More flights under this callsign
Pilot: Andre N. (13929)
Aircraft: Unknown
(B748)
More flights by this aircraft type
Origin: KGEG Spokane Intl
United States
Destination: KBFI Boeing Field/King Co Intl
United States
More flights between these airports :: More routes between these airports
Route: +GEG3 TEMPL GLASR1
File this flight plan on PilotEdge
Remarks:
Altitude:
(Current/Filed)
32,000ft
Speed:
(Current/Filed)
440kts
Departed: 07-May-18 08:28 PM
Arrived: 07-May-18 09:13 PM
Distance/Time
Traveled:
193nm/0:45
Distance/Time
To Go:
Arrived

Flight Plot

Page will automatically refresh every two minutes.

Flight plan parsing failed; only flown route is shown


Map Options




Map Legend


Flown Route
Filed Route
Departure Airport
Arrival Airport
Navaid (VOR, NDB)
Fix

Horizontal Profiles

Position Reports

Time Latitude Longitude Heading Altitude Ground
Speed
07-May-18 20:02 47.627378 -117.529757 315 2374ft 0kts
07-May-18 20:03 47.627378 -117.529757 315 2374ft 0kts
07-May-18 20:04 47.627378 -117.529757 315 2374ft 0kts
07-May-18 20:05 47.627378 -117.529757 315 2374ft 0kts
07-May-18 20:06 47.627378 -117.529757 315 2374ft 0kts
07-May-18 20:07 47.627378 -117.529757 315 2374ft 0kts
07-May-18 20:08 47.627378 -117.529757 315 2374ft 0kts
07-May-18 20:09 47.627378 -117.529757 315 2374ft 0kts
07-May-18 20:10 47.627378 -117.529757 315 2374ft 0kts
07-May-18 20:11 47.627378 -117.529757 315 2374ft 0kts
07-May-18 20:12 47.627378 -117.529757 315 2374ft 0kts
07-May-18 20:13 47.627378 -117.529757 315 2374ft 0kts
07-May-18 20:14 47.627378 -117.529757 315 2374ft 0kts
07-May-18 20:15 47.627378 -117.529757 315 2374ft 0kts
07-May-18 20:17 47.627378 -117.529757 315 2374ft 0kts
07-May-18 20:18 47.627378 -117.529756 315 2374ft 0kts
07-May-18 20:19 47.626915 -117.529466 2 2374ft 2kts
07-May-18 20:20 47.626343 -117.529617 42 2374ft 2kts
07-May-18 20:21 47.626107 -117.529995 45 2374ft 0kts
07-May-18 20:22 47.626107 -117.529994 45 2374ft 0kts
07-May-18 20:23 47.626151 -117.529927 45 2374ft 2kts
07-May-18 20:24 47.628618 -117.526218 45 2374ft 24kts
07-May-18 20:25 47.632592 -117.520749 111 2374ft 0kts
07-May-18 20:26 47.632573 -117.520692 116 2374ft 0kts
07-May-18 20:27 47.630255 -117.519704 224 2374ft 28kts
07-May-18 20:28 47.603178 -117.560080 223 3138ft 192kts
07-May-18 20:29 47.561563 -117.620759 223 5852ft 219kts
07-May-18 20:30 47.548382 -117.704692 285 7500ft 265kts
07-May-18 20:31 47.567075 -117.806555 282 10115ft 276kts
07-May-18 20:32 47.581772 -117.912593 280 11770ft 316kts
07-May-18 20:33 47.595924 -118.037855 278 14421ft 325kts
07-May-18 20:34 47.609198 -118.168494 278 16778ft 335kts
07-May-18 20:35 47.622413 -118.303966 278 18903ft 343kts
07-May-18 20:36 47.635494 -118.440634 278 20775ft 351kts
07-May-18 20:37 47.648737 -118.580771 278 22472ft 359kts
07-May-18 20:38 47.657113 -118.670445 278 23461ft 364kts
07-May-18 20:39 47.669897 -118.810081 278 24874ft 371kts
07-May-18 20:40 47.683507 -118.959937 278 26178ft 379kts
07-May-18 20:41 47.696669 -119.106684 278 27118ft 385kts
07-May-18 20:42 47.710449 -119.262320 278 27137ft 391kts
07-May-18 20:43 47.724080 -119.418399 278 27137ft 414kts
07-May-18 20:44 47.738645 -119.593765 277 27136ft 441kts
07-May-18 20:45 47.752304 -119.770677 276 27130ft 449kts
07-May-18 20:46 47.766429 -119.955086 276 27129ft 449kts
07-May-18 20:47 47.780550 -120.139570 275 27129ft 452kts
07-May-18 20:48 47.793841 -120.321986 275 27128ft 452kts
07-May-18 20:49 47.807166 -120.507968 276 27128ft 452kts
07-May-18 20:50 47.819683 -120.684123 275 26308ft 453kts
07-May-18 20:51 47.829958 -120.831485 275 24296ft 409kts
07-May-18 20:52 47.840557 -120.990663 275 21710ft 378kts
07-May-18 20:53 47.850082 -121.132956 275 19316ft 328kts
07-May-18 20:54 47.858680 -121.264961 275 17280ft 319kts
07-May-18 20:55 47.866792 -121.393766 275 15328ft 308kts
07-May-18 20:56 47.874663 -121.518618 275 13421ft 299kts
07-May-18 20:57 47.882260 -121.639752 275 11610ft 290kts
07-May-18 20:58 47.855355 -121.740160 229 11001ft 288kts
07-May-18 20:59 47.798552 -121.823457 222 10983ft 287kts
07-May-18 21:00 47.738939 -121.903241 222 11009ft 288kts
07-May-18 21:01 47.672028 -121.945961 175 10233ft 274kts
07-May-18 21:02 47.603966 -121.936713 175 8993ft 233kts
07-May-18 21:03 47.538905 -121.927987 175 7877ft 228kts
07-May-18 21:04 47.477548 -121.920043 175 6767ft 224kts
07-May-18 21:05 47.436297 -121.966662 244 5614ft 207kts
07-May-18 21:06 47.413067 -122.038909 245 5071ft 189kts
07-May-18 21:07 47.394011 -122.110143 271 4342ft 176kts
07-May-18 21:08 47.395501 -122.183748 273 2779ft 175kts
07-May-18 21:09 47.430592 -122.220916 334 1770ft 158kts
07-May-18 21:10 47.469353 -122.251056 332 1188ft 158kts
07-May-18 21:11 47.506267 -122.282382 330 394ft 153kts
07-May-18 21:12 47.533970 -122.305776 330 30ft 54kts
07-May-18 21:13 47.539799 -122.312433 243 30ft 9kts
07-May-18 21:14 47.538262 -122.312731 58 30ft 0kts

Navigation Log

Ident Type
Flight plan parsing failed, navigation log unavailable